Ever Legacy — 9V9290 — position and weather

sailwx.info

Track history (hours):
 
Tides and Currents Weather Stations Pressure Air Temp Water Temp Dewpoint Dewpoint Depression Visibility Wind Speed Wind Dir Waves Ship Positions

Ever Legacy

Last reported at 2018-Jun-12 12:47 UTC. Time now 2018-Jun-20 05:18 UTC.
Position N 34°52' W 128°48'.

Length 335 m; draft 12.1 m.

Type: Ship (hazmat cat D). MMSI: 566853000.

Date/timePositionNaut miles runAvg speedWind from/ knotsBaromVisibWave heightAir tempDewpointWater temp
2018-Jun-12 12:47N 34°52' W 128°48'516.5
2018-Jun-12 12:30N 34°49' W 128°44'1016.5
2018-Jun-12 11:54N 34°43' W 128°34'7716.6
2018-Jun-12 07:15N 33°58' W 127°18'916.1
2018-Jun-12 06:42N 33°53' W 127°10'33616.0
2018-Jun-11 09:40N 30°27' W 121°56'515.3
2018-Jun-11 09:19N 30°23' W 121°51'2715.1
2018-Jun-11 07:31N 30°07' W 121°26'013.1
2018-Jun-11 07:30N 30°07' W 121°26'815.1
2018-Jun-11 07:00N 30°02' W 121°19'815.2
2018-Jun-11 06:30N 29°57' W 121°13'815.0
2018-Jun-11 05:57N 29°51' W 121°05'714.8
2018-Jun-11 05:31N 29°47' W 120°60'715.0
2018-Jun-11 05:01N 29°42' W 120°53'915.2
2018-Jun-11 04:23N 29°37' W 120°44'13615.8
2018-Jun-10 19:47N 28°11' W 118°44'1916.2
2018-Jun-10 18:37N 27°59' W 118°27'216.1
2018-Jun-10 18:30N 27°58' W 118°26'816.0
2018-Jun-10 18:00N 27°52' W 118°19'816.5
2018-Jun-10 17:31N 27°47' W 118°12'816.2
2018-Jun-10 17:00N 27°42' W 118°04'2016.5
2018-Jun-10 15:46N 27°29' W 117°46'1116.5
2018-Jun-10 15:05N 27°22' W 117°36'116.0
2018-Jun-10 15:00N 27°22' W 117°35'2316.3
2018-Jun-10 13:37N 27°07' W 117°15'216.2
2018-Jun-10 13:30N 27°06' W 117°14'  
2018-Jun-06 20:00N 14°00' W 095°54'   320 / 41013.027.0 29.026.231.0
2018-Jun-03 14:59N 09°13' W 079°55'3 5.5
2018-Jun-03 14:29N 09°15' W 079°54'0 0.1
2018-Jun-03 14:00N 09°15' W 079°54'0 0.0
2018-Jun-03 13:30N 09°15' W 079°54'0 0.1
2018-Jun-03 12:59N 09°15' W 079°54'0 0.2
2018-Jun-03 12:30N 09°15' W 079°54'0 0.3
2018-Jun-03 12:00N 09°15' W 079°54'0 0.3
2018-Jun-03 11:30N 09°15' W 079°54'1 1.3
2018-Jun-03 11:00N 09°16' W 079°55'0 0.2
2018-Jun-03 10:30N 09°16' W 079°55'0 0.4
2018-Jun-03 10:00N 09°16' W 079°55'0 0.5
2018-Jun-03 09:30N 09°17' W 079°55'0 0.0
2018-Jun-03 08:59N 09°17' W 079°55'0 0.9
2018-Jun-03 08:30N 09°17' W 079°55'1 1.3
2018-Jun-03 08:00N 09°18' W 079°55'2 4.2
2018-Jun-03 07:30N 09°20' W 079°55'2 4.1
2018-Jun-03 07:00N 09°22' W 079°55'3 6.6
2018-Jun-03 06:30N 09°25' W 079°55'2 4.0
2018-Jun-03 06:00N 09°25' W 079°53'0 0.1
2018-Jun-03 05:30N 09°25' W 079°53'0 0.0
2018-Jun-03 04:58N 09°25' W 079°53'0 0.0
2018-Jun-03 04:30N 09°25' W 079°53'0 0.1
2018-Jun-03 03:59N 09°25' W 079°53'0 0.0
2018-Jun-03 03:30N 09°25' W 079°53'0 0.1
2018-Jun-03 03:00N 09°25' W 079°53'0 0.0
2018-Jun-03 02:29N 09°25' W 079°53'0 0.0
2018-Jun-03 02:00N 09°25' W 079°53'0 0.0
2018-Jun-03 01:30N 09°25' W 079°53'0 0.0
2018-Jun-03 01:00N 09°25' W 079°53'0 0.1
2018-Jun-03 00:30N 09°25' W 079°53'0 0.4
2018-Jun-03 00:00N 09°25' W 079°53'2 4.4
2018-Jun-02 23:31N 09°23' W 079°54'1 1.2
2018-Jun-02 23:00N 09°22' W 079°53'0 0.1
2018-Jun-02 22:29N 09°23' W 079°53'0 0.0
2018-Jun-02 22:00N 09°23' W 079°53'0 0.0
2018-Jun-02 21:29N 09°23' W 079°53'0 0.0
2018-Jun-02 20:59N 09°23' W 079°53'0 0.0
2018-Jun-02 20:29N 09°23' W 079°53'0 0.0
2018-Jun-02 19:59N 09°23' W 079°53'0 0.0
2018-Jun-02 19:29N 09°23' W 079°53'0 0.0
2018-Jun-02 18:59N 09°23' W 079°53'0 0.0
2018-Jun-02 18:30N 09°23' W 079°53'0 0.0
2018-Jun-02 17:59N 09°23' W 079°53'0 0.0
2018-Jun-02 17:29N 09°23' W 079°53'0 0.0
2018-Jun-02 16:59N 09°23' W 079°53'0 0.0
2018-Jun-02 16:30N 09°23' W 079°53'0 0.0
2018-Jun-02 15:59N 09°23' W 079°53'0 0.0
2018-Jun-02 15:29N 09°23' W 079°53'0 0.0
2018-Jun-02 14:59N 09°23' W 079°53'0 0.0
2018-Jun-02 14:29N 09°23' W 079°53'0 0.0
2018-Jun-02 14:00N 09°23' W 079°53'0 0.0
2018-Jun-02 13:29N 09°23' W 079°53'0 0.0
2018-Jun-02 13:00N 09°23' W 079°53'  
Track history (hours):
 
Tides and Currents Weather Stations Pressure Air Temp Water Temp Dewpoint Dewpoint Depression Visibility Wind Speed Wind Dir Waves Ship Positions

Ever Legacy

Last reported at 2018-Jun-12 12:47 UTC. Time now 2018-Jun-20 05:18 UTC.
Position N 34°52' W 128°48'.

Length 335 m; draft 12.1 m.

Type: Ship (hazmat cat D). MMSI: 566853000.

Date/timePositionNaut miles runAvg speedWind from/ knotsBaromVisibWave heightAir tempDewpointWater temp
2018-Jun-12 12:47N 34°52' W 128°48'516.5
2018-Jun-12 12:30N 34°49' W 128°44'1016.5
2018-Jun-12 11:54N 34°43' W 128°34'7716.6
2018-Jun-12 07:15N 33°58' W 127°18'916.1
2018-Jun-12 06:42N 33°53' W 127°10'33616.0
2018-Jun-11 09:40N 30°27' W 121°56'515.3
2018-Jun-11 09:19N 30°23' W 121°51'2715.1
2018-Jun-11 07:31N 30°07' W 121°26'013.1
2018-Jun-11 07:30N 30°07' W 121°26'815.1
2018-Jun-11 07:00N 30°02' W 121°19'815.2
2018-Jun-11 06:30N 29°57' W 121°13'815.0
2018-Jun-11 05:57N 29°51' W 121°05'714.8
2018-Jun-11 05:31N 29°47' W 120°60'715.0
2018-Jun-11 05:01N 29°42' W 120°53'915.2
2018-Jun-11 04:23N 29°37' W 120°44'13615.8
2018-Jun-10 19:47N 28°11' W 118°44'1916.2
2018-Jun-10 18:37N 27°59' W 118°27'216.1
2018-Jun-10 18:30N 27°58' W 118°26'816.0
2018-Jun-10 18:00N 27°52' W 118°19'816.5
2018-Jun-10 17:31N 27°47' W 118°12'816.2
2018-Jun-10 17:00N 27°42' W 118°04'2016.5
2018-Jun-10 15:46N 27°29' W 117°46'1116.5
2018-Jun-10 15:05N 27°22' W 117°36'116.0
2018-Jun-10 15:00N 27°22' W 117°35'2316.3
2018-Jun-10 13:37N 27°07' W 117°15'216.2
2018-Jun-10 13:30N 27°06' W 117°14'  
2018-Jun-06 20:00N 14°00' W 095°54'   320 / 41013.027.0 29.026.231.0
2018-Jun-03 14:59N 09°13' W 079°55'3 5.5
2018-Jun-03 14:29N 09°15' W 079°54'0 0.1
2018-Jun-03 14:00N 09°15' W 079°54'0 0.0
2018-Jun-03 13:30N 09°15' W 079°54'0 0.1
2018-Jun-03 12:59N 09°15' W 079°54'0 0.2
2018-Jun-03 12:30N 09°15' W 079°54'0 0.3
2018-Jun-03 12:00N 09°15' W 079°54'0 0.3
2018-Jun-03 11:30N 09°15' W 079°54'1 1.3
2018-Jun-03 11:00N 09°16' W 079°55'0 0.2
2018-Jun-03 10:30N 09°16' W 079°55'0 0.4
2018-Jun-03 10:00N 09°16' W 079°55'0 0.5
2018-Jun-03 09:30N 09°17' W 079°55'0 0.0
2018-Jun-03 08:59N 09°17' W 079°55'0 0.9
2018-Jun-03 08:30N 09°17' W 079°55'1 1.3
2018-Jun-03 08:00N 09°18' W 079°55'2 4.2
2018-Jun-03 07:30N 09°20' W 079°55'2 4.1
2018-Jun-03 07:00N 09°22' W 079°55'3 6.6
2018-Jun-03 06:30N 09°25' W 079°55'2 4.0
2018-Jun-03 06:00N 09°25' W 079°53'0 0.1
2018-Jun-03 05:30N 09°25' W 079°53'0 0.0
2018-Jun-03 04:58N 09°25' W 079°53'0 0.0
2018-Jun-03 04:30N 09°25' W 079°53'0 0.1
2018-Jun-03 03:59N 09°25' W 079°53'0 0.0
2018-Jun-03 03:30N 09°25' W 079°53'0 0.1
2018-Jun-03 03:00N 09°25' W 079°53'0 0.0
2018-Jun-03 02:29N 09°25' W 079°53'0 0.0
2018-Jun-03 02:00N 09°25' W 079°53'0 0.0
2018-Jun-03 01:30N 09°25' W 079°53'0 0.0
2018-Jun-03 01:00N 09°25' W 079°53'0 0.1
2018-Jun-03 00:30N 09°25' W 079°53'0 0.4
2018-Jun-03 00:00N 09°25' W 079°53'2 4.4
2018-Jun-02 23:31N 09°23' W 079°54'1 1.2
2018-Jun-02 23:00N 09°22' W 079°53'0 0.1
2018-Jun-02 22:29N 09°23' W 079°53'0 0.0
2018-Jun-02 22:00N 09°23' W 079°53'0 0.0
2018-Jun-02 21:29N 09°23' W 079°53'0 0.0
2018-Jun-02 20:59N 09°23' W 079°53'0 0.0
2018-Jun-02 20:29N 09°23' W 079°53'0 0.0
2018-Jun-02 19:59N 09°23' W 079°53'0 0.0
2018-Jun-02 19:29N 09°23' W 079°53'0 0.0
2018-Jun-02 18:59N 09°23' W 079°53'0 0.0
2018-Jun-02 18:30N 09°23' W 079°53'0 0.0
2018-Jun-02 17:59N 09°23' W 079°53'0 0.0
2018-Jun-02 17:29N 09°23' W 079°53'0 0.0
2018-Jun-02 16:59N 09°23' W 079°53'0 0.0
2018-Jun-02 16:30N 09°23' W 079°53'0 0.0
2018-Jun-02 15:59N 09°23' W 079°53'0 0.0
2018-Jun-02 15:29N 09°23' W 079°53'0 0.0
2018-Jun-02 14:59N 09°23' W 079°53'0 0.0
2018-Jun-02 14:29N 09°23' W 079°53'0 0.0
2018-Jun-02 14:00N 09°23' W 079°53'0 0.0
2018-Jun-02 13:29N 09°23' W 079°53'0 0.0
2018-Jun-02 13:00N 09°23' W 079°53'  

Dump ship's entire track history